sensor_id;sensor_type;location;lat;lon;timestamp;P1;durP1;ratioP1;P2;durP2;ratioP2
8161;SDS011;16778;48.154;15.094;2022-07-04T00:00:38;0.80;;;0.80;;
8161;SDS011;16778;48.154;15.094;2022-07-04T00:03:04;0.60;;;0.60;;
8161;SDS011;16778;48.154;15.094;2022-07-04T00:05:30;1.20;;;0.80;;
8161;SDS011;16778;48.154;15.094;2022-07-04T00:07:56;0.70;;;0.70;;
8161;SDS011;16778;48.154;15.094;2022-07-04T00:10:22;1.63;;;1.00;;
8161;SDS011;16778;48.154;15.094;2022-07-04T00:12:49;1.50;;;0.80;;
8161;SDS011;16778;48.154;15.094;2022-07-04T00:15:15;1.00;;;0.70;;
8161;SDS011;16778;48.154;15.094;2022-07-04T00:17:41;1.33;;;0.80;;
8161;SDS011;16778;48.154;15.094;2022-07-04T00:20:07;1.67;;;1.10;;
8161;SDS011;16778;48.154;15.094;2022-07-04T00:22:35;1.00;;;0.77;;
8161;SDS011;16778;48.154;15.094;2022-07-04T00:25:01;1.00;;;0.80;;
8161;SDS011;16778;48.154;15.094;2022-07-04T00:27:27;1.97;;;0.80;;
8161;SDS011;16778;48.154;15.094;2022-07-04T00:29:53;0.80;;;0.80;;
8161;SDS011;16778;48.154;15.094;2022-07-04T00:32:19;0.83;;;0.80;;
8161;SDS011;16778;48.154;15.094;2022-07-04T00:34:45;0.70;;;0.70;;
8161;SDS011;16778;48.154;15.094;2022-07-04T00:37:11;0.70;;;0.70;;
8161;SDS011;16778;48.154;15.094;2022-07-04T00:39:37;0.63;;;0.63;;
8161;SDS011;16778;48.154;15.094;2022-07-04T00:42:03;0.80;;;0.80;;
8161;SDS011;16778;48.154;15.094;2022-07-04T00:44:30;1.43;;;1.20;;
8161;SDS011;16778;48.154;15.094;2022-07-04T00:47:00;1.13;;;1.03;;
8161;SDS011;16778;48.154;15.094;2022-07-04T00:49:26;1.20;;;0.97;;
8161;SDS011;16778;48.154;15.094;2022-07-04T00:51:52;0.90;;;0.90;;
8161;SDS011;16778;48.154;15.094;2022-07-04T00:54:18;0.93;;;0.80;;
8161;SDS011;16778;48.154;15.094;2022-07-04T00:56:45;0.87;;;0.80;;
8161;SDS011;16778;48.154;15.094;2022-07-04T00:59:11;1.10;;;1.00;;
8161;SDS011;16778;48.154;15.094;2022-07-04T01:01:38;0.80;;;0.80;;
8161;SDS011;16778;48.154;15.094;2022-07-04T01:04:04;1.20;;;1.00;;
8161;SDS011;16778;48.154;15.094;2022-07-04T01:06:32;1.40;;;1.00;;
8161;SDS011;16778;48.154;15.094;2022-07-04T01:08:59;1.40;;;1.10;;
8161;SDS011;16778;48.154;15.094;2022-07-04T01:11:26;1.40;;;1.23;;
8161;SDS011;16778;48.154;15.094;2022-07-04T01:13:54;0.93;;;0.90;;
8161;SDS011;16778;48.154;15.094;2022-07-04T01:16:21;0.77;;;0.77;;
8161;SDS011;16778;48.154;15.094;2022-07-04T01:18:49;1.10;;;1.00;;
8161;SDS011;16778;48.154;15.094;2022-07-04T01:21:17;1.13;;;1.07;;
8161;SDS011;16778;48.154;15.094;2022-07-04T01:23:43;1.10;;;1.00;;
8161;SDS011;16778;48.154;15.094;2022-07-04T01:26:09;1.10;;;1.00;;
8161;SDS011;16778;48.154;15.094;2022-07-04T01:28:36;1.03;;;0.80;;
8161;SDS011;16778;48.154;15.094;2022-07-04T01:31:02;1.13;;;1.00;;
8161;SDS011;16778;48.154;15.094;2022-07-04T01:33:29;0.87;;;0.87;;
8161;SDS011;16778;48.154;15.094;2022-07-04T01:35:55;0.97;;;0.87;;
8161;SDS011;16778;48.154;15.094;2022-07-04T01:38:21;0.87;;;0.80;;
8161;SDS011;16778;48.154;15.094;2022-07-04T01:40:47;0.97;;;0.90;;
8161;SDS011;16778;48.154;15.094;2022-07-04T01:43:13;0.77;;;0.70;;
8161;SDS011;16778;48.154;15.094;2022-07-04T01:45:39;1.47;;;0.70;;
8161;SDS011;16778;48.154;15.094;2022-07-04T01:48:06;0.80;;;0.80;;
8161;SDS011;16778;48.154;15.094;2022-07-04T01:50:34;0.50;;;0.50;;
8161;SDS011;16778;48.154;15.094;2022-07-04T01:53:01;0.77;;;0.73;;
8161;SDS011;16778;48.154;15.094;2022-07-04T01:55:28;0.70;;;0.70;;
8161;SDS011;16778;48.154;15.094;2022-07-04T01:57:55;1.53;;;0.90;;
8161;SDS011;16778;48.154;15.094;2022-07-04T02:00:21;1.43;;;0.80;;
8161;SDS011;16778;48.154;15.094;2022-07-04T02:03:07;1.30;;;0.70;;
8161;SDS011;16778;48.154;15.094;2022-07-04T02:05:33;1.73;;;1.10;;
8161;SDS011;16778;48.154;15.094;2022-07-04T02:07:59;1.03;;;1.00;;
8161;SDS011;16778;48.154;15.094;2022-07-04T02:10:25;0.70;;;0.70;;
8161;SDS011;16778;48.154;15.094;2022-07-04T02:12:51;1.17;;;1.03;;
8161;SDS011;16778;48.154;15.094;2022-07-04T02:15:36;1.30;;;1.20;;
8161;SDS011;16778;48.154;15.094;2022-07-04T02:18:06;0.80;;;0.70;;
8161;SDS011;16778;48.154;15.094;2022-07-04T02:20:34;0.93;;;0.90;;
8161;SDS011;16778;48.154;15.094;2022-07-04T02:23:02;0.93;;;0.80;;
8161;SDS011;16778;48.154;15.094;2022-07-04T02:25:29;0.87;;;0.70;;
8161;SDS011;16778;48.154;15.094;2022-07-04T02:27:56;0.70;;;0.70;;
8161;SDS011;16778;48.154;15.094;2022-07-04T02:30:22;0.80;;;0.80;;
8161;SDS011;16778;48.154;15.094;2022-07-04T02:32:49;1.07;;;0.90;;
8161;SDS011;16778;48.154;15.094;2022-07-04T02:35:15;1.03;;;0.90;;
8161;SDS011;16778;48.154;15.094;2022-07-04T02:37:41;0.77;;;0.70;;
8161;SDS011;16778;48.154;15.094;2022-07-04T02:40:07;0.63;;;0.60;;
8161;SDS011;16778;48.154;15.094;2022-07-04T02:42:34;0.60;;;0.60;;
8161;SDS011;16778;48.154;15.094;2022-07-04T02:45:01;0.80;;;0.70;;
8161;SDS011;16778;48.154;15.094;2022-07-04T02:47:28;0.70;;;0.70;;
8161;SDS011;16778;48.154;15.094;2022-07-04T02:49:54;1.13;;;1.03;;
8161;SDS011;16778;48.154;15.094;2022-07-04T02:52:20;1.13;;;1.00;;
8161;SDS011;16778;48.154;15.094;2022-07-04T02:54:46;0.80;;;0.80;;
8161;SDS011;16778;48.154;15.094;2022-07-04T02:57:13;1.10;;;0.93;;
8161;SDS011;16778;48.154;15.094;2022-07-04T02:59:40;0.87;;;0.87;;
8161;SDS011;16778;48.154;15.094;2022-07-04T03:02:06;0.70;;;0.70;;
8161;SDS011;16778;48.154;15.094;2022-07-04T03:04:32;1.03;;;0.70;;
8161;SDS011;16778;48.154;15.094;2022-07-04T03:06:58;1.17;;;1.07;;
8161;SDS011;16778;48.154;15.094;2022-07-04T03:09:24;0.77;;;0.77;;
8161;SDS011;16778;48.154;15.094;2022-07-04T03:11:53;1.10;;;0.80;;
8161;SDS011;16778;48.154;15.094;2022-07-04T03:14:19;0.90;;;0.90;;
8161;SDS011;16778;48.154;15.094;2022-07-04T03:16:46;1.27;;;1.17;;
8161;SDS011;16778;48.154;15.094;2022-07-04T03:19:12;0.80;;;0.80;;
8161;SDS011;16778;48.154;15.094;2022-07-04T03:21:38;0.70;;;0.70;;
8161;SDS011;16778;48.154;15.094;2022-07-04T03:24:04;1.90;;;1.10;;
8161;SDS011;16778;48.154;15.094;2022-07-04T03:26:30;1.50;;;1.03;;
8161;SDS011;16778;48.154;15.094;2022-07-04T03:28:58;0.67;;;0.67;;
8161;SDS011;16778;48.154;15.094;2022-07-04T03:31:25;0.57;;;0.57;;
8161;SDS011;16778;48.154;15.094;2022-07-04T03:33:53;0.70;;;0.70;;
8161;SDS011;16778;48.154;15.094;2022-07-04T03:36:19;1.07;;;0.90;;
8161;SDS011;16778;48.154;15.094;2022-07-04T03:38:46;1.17;;;0.93;;
8161;SDS011;16778;48.154;15.094;2022-07-04T03:41:13;1.87;;;1.40;;
8161;SDS011;16778;48.154;15.094;2022-07-04T03:43:39;0.87;;;0.87;;
8161;SDS011;16778;48.154;15.094;2022-07-04T03:46:05;1.30;;;0.97;;
8161;SDS011;16778;48.154;15.094;2022-07-04T03:48:31;0.80;;;0.80;;
8161;SDS011;16778;48.154;15.094;2022-07-04T03:50:57;1.20;;;1.00;;
8161;SDS011;16778;48.154;15.094;2022-07-04T03:53:23;1.73;;;1.00;;
8161;SDS011;16778;48.154;15.094;2022-07-04T03:55:49;1.40;;;1.30;;
8161;SDS011;16778;48.154;15.094;2022-07-04T03:58:15;1.63;;;1.23;;
8161;SDS011;16778;48.154;15.094;2022-07-04T04:00:41;0.93;;;0.80;;
8161;SDS011;16778;48.154;15.094;2022-07-04T04:03:08;1.90;;;1.10;;
8161;SDS011;16778;48.154;15.094;2022-07-04T04:05:53;1.00;;;0.90;;
8161;SDS011;16778;48.154;15.094;2022-07-04T04:08:20;1.50;;;1.00;;
8161;SDS011;16778;48.154;15.094;2022-07-04T04:10:46;0.80;;;0.80;;
8161;SDS011;16778;48.154;15.094;2022-07-04T04:13:12;1.20;;;0.80;;
8161;SDS011;16778;48.154;15.094;2022-07-04T04:15:38;0.80;;;0.80;;
8161;SDS011;16778;48.154;15.094;2022-07-04T04:18:04;1.07;;;0.97;;
8161;SDS011;16778;48.154;15.094;2022-07-04T04:20:30;1.03;;;0.97;;
8161;SDS011;16778;48.154;15.094;2022-07-04T04:22:56;0.93;;;0.93;;
8161;SDS011;16778;48.154;15.094;2022-07-04T04:25:22;1.30;;;1.00;;
8161;SDS011;16778;48.154;15.094;2022-07-04T04:27:48;3.33;;;0.90;;
8161;SDS011;16778;48.154;15.094;2022-07-04T04:30:14;1.20;;;1.10;;
8161;SDS011;16778;48.154;15.094;2022-07-04T04:32:39;1.77;;;1.13;;
8161;SDS011;16778;48.154;15.094;2022-07-04T04:35:06;0.67;;;0.67;;
8161;SDS011;16778;48.154;15.094;2022-07-04T04:37:32;0.63;;;0.63;;
8161;SDS011;16778;48.154;15.094;2022-07-04T04:39:58;0.40;;;0.40;;
8161;SDS011;16778;48.154;15.094;2022-07-04T04:42:24;0.90;;;0.80;;
8161;SDS011;16778;48.154;15.094;2022-07-04T04:44:50;1.00;;;0.90;;
8161;SDS011;16778;48.154;15.094;2022-07-04T04:47:16;1.10;;;1.00;;
8161;SDS011;16778;48.154;15.094;2022-07-04T04:49:42;2.27;;;1.17;;
8161;SDS011;16778;48.154;15.094;2022-07-04T04:52:08;2.00;;;1.70;;
8161;SDS011;16778;48.154;15.094;2022-07-04T04:54:35;3.10;;;1.13;;
8161;SDS011;16778;48.154;15.094;2022-07-04T04:57:01;3.13;;;1.53;;
8161;SDS011;16778;48.154;15.094;2022-07-04T04:59:28;1.83;;;1.20;;
8161;SDS011;16778;48.154;15.094;2022-07-04T05:01:57;1.87;;;1.33;;
8161;SDS011;16778;48.154;15.094;2022-07-04T05:04:24;1.40;;;1.30;;
8161;SDS011;16778;48.154;15.094;2022-07-04T05:06:50;1.90;;;1.30;;
8161;SDS011;16778;48.154;15.094;2022-07-04T05:09:16;1.20;;;1.10;;
8161;SDS011;16778;48.154;15.094;2022-07-04T05:11:42;1.60;;;1.27;;
8161;SDS011;16778;48.154;15.094;2022-07-04T05:14:08;1.27;;;1.07;;
8161;SDS011;16778;48.154;15.094;2022-07-04T05:16:34;1.60;;;1.10;;
8161;SDS011;16778;48.154;15.094;2022-07-04T05:19:00;1.67;;;1.20;;
8161;SDS011;16778;48.154;15.094;2022-07-04T05:21:26;1.97;;;1.40;;
8161;SDS011;16778;48.154;15.094;2022-07-04T05:23:53;2.30;;;1.20;;
8161;SDS011;16778;48.154;15.094;2022-07-04T05:26:20;1.23;;;1.10;;
8161;SDS011;16778;48.154;15.094;2022-07-04T05:28:47;1.30;;;1.20;;
8161;SDS011;16778;48.154;15.094;2022-07-04T05:31:13;0.90;;;0.90;;
8161;SDS011;16778;48.154;15.094;2022-07-04T05:33:39;1.10;;;1.00;;
8161;SDS011;16778;48.154;15.094;2022-07-04T05:36:05;1.03;;;1.00;;
8161;SDS011;16778;48.154;15.094;2022-07-04T05:38:31;1.23;;;1.10;;
8161;SDS011;16778;48.154;15.094;2022-07-04T05:40:57;1.03;;;0.90;;
8161;SDS011;16778;48.154;15.094;2022-07-04T05:43:26;1.00;;;0.90;;
8161;SDS011;16778;48.154;15.094;2022-07-04T05:45:52;0.97;;;0.87;;
8161;SDS011;16778;48.154;15.094;2022-07-04T05:48:18;1.20;;;1.10;;
8161;SDS011;16778;48.154;15.094;2022-07-04T05:50:44;1.03;;;1.03;;
8161;SDS011;16778;48.154;15.094;2022-07-04T05:53:10;0.90;;;0.90;;
8161;SDS011;16778;48.154;15.094;2022-07-04T05:55:36;1.40;;;1.30;;
8161;SDS011;16778;48.154;15.094;2022-07-04T05:58:02;1.20;;;1.10;;
8161;SDS011;16778;48.154;15.094;2022-07-04T06:00:28;1.50;;;1.20;;
8161;SDS011;16778;48.154;15.094;2022-07-04T06:02:54;0.97;;;0.80;;
8161;SDS011;16778;48.154;15.094;2022-07-04T06:05:20;1.07;;;0.90;;
8161;SDS011;16778;48.154;15.094;2022-07-04T06:07:45;1.23;;;1.00;;
8161;SDS011;16778;48.154;15.094;2022-07-04T06:10:13;0.97;;;0.73;;
8161;SDS011;16778;48.154;15.094;2022-07-04T06:12:39;1.10;;;1.00;;
8161;SDS011;16778;48.154;15.094;2022-07-04T06:15:06;0.83;;;0.80;;
8161;SDS011;16778;48.154;15.094;2022-07-04T06:17:34;1.03;;;0.93;;
8161;SDS011;16778;48.154;15.094;2022-07-04T06:20:01;1.00;;;0.90;;
8161;SDS011;16778;48.154;15.094;2022-07-04T06:22:37;1.43;;;1.33;;
8161;SDS011;16778;48.154;15.094;2022-07-04T06:25:18;1.07;;;0.97;;
8161;SDS011;16778;48.154;15.094;2022-07-04T06:27:46;1.70;;;1.40;;
8161;SDS011;16778;48.154;15.094;2022-07-04T06:30:14;0.70;;;0.70;;
8161;SDS011;16778;48.154;15.094;2022-07-04T06:32:48;0.80;;;0.80;;
8161;SDS011;16778;48.154;15.094;2022-07-04T06:35:20;0.97;;;0.87;;
8161;SDS011;16778;48.154;15.094;2022-07-04T06:38:12;1.47;;;1.10;;
8161;SDS011;16778;48.154;15.094;2022-07-04T06:40:40;0.97;;;0.90;;
8161;SDS011;16778;48.154;15.094;2022-07-04T06:43:07;0.80;;;0.80;;
8161;SDS011;16778;48.154;15.094;2022-07-04T06:45:33;1.17;;;1.07;;
8161;SDS011;16778;48.154;15.094;2022-07-04T06:48:00;0.70;;;0.70;;
8161;SDS011;16778;48.154;15.094;2022-07-04T06:50:27;1.67;;;0.90;;
8161;SDS011;16778;48.154;15.094;2022-07-04T06:52:53;0.80;;;0.80;;
8161;SDS011;16778;48.154;15.094;2022-07-04T06:55:19;0.70;;;0.70;;
8161;SDS011;16778;48.154;15.094;2022-07-04T06:57:45;1.03;;;0.93;;
8161;SDS011;16778;48.154;15.094;2022-07-04T07:00:11;0.90;;;0.90;;
8161;SDS011;16778;48.154;15.094;2022-07-04T07:02:37;1.10;;;0.97;;
8161;SDS011;16778;48.154;15.094;2022-07-04T07:05:04;1.00;;;0.80;;
8161;SDS011;16778;48.154;15.094;2022-07-04T07:07:30;1.07;;;0.90;;
8161;SDS011;16778;48.154;15.094;2022-07-04T07:09:56;1.40;;;0.93;;
8161;SDS011;16778;48.154;15.094;2022-07-04T07:12:22;1.27;;;1.17;;
8161;SDS011;16778;48.154;15.094;2022-07-04T07:14:49;1.13;;;1.03;;
8161;SDS011;16778;48.154;15.094;2022-07-04T07:17:16;0.83;;;0.83;;
8161;SDS011;16778;48.154;15.094;2022-07-04T07:19:42;1.20;;;0.97;;
8161;SDS011;16778;48.154;15.094;2022-07-04T07:22:09;1.00;;;0.90;;
8161;SDS011;16778;48.154;15.094;2022-07-04T07:24:36;1.63;;;1.13;;
8161;SDS011;16778;48.154;15.094;2022-07-04T07:27:03;1.90;;;1.53;;
8161;SDS011;16778;48.154;15.094;2022-07-04T07:29:29;3.07;;;1.20;;
8161;SDS011;16778;48.154;15.094;2022-07-04T07:31:56;1.30;;;1.20;;
8161;SDS011;16778;48.154;15.094;2022-07-04T07:34:23;1.50;;;1.20;;
8161;SDS011;16778;48.154;15.094;2022-07-04T07:36:49;1.13;;;0.90;;
8161;SDS011;16778;48.154;15.094;2022-07-04T07:39:16;1.27;;;1.10;;
8161;SDS011;16778;48.154;15.094;2022-07-04T07:41:42;1.20;;;1.03;;
8161;SDS011;16778;48.154;15.094;2022-07-04T07:44:08;1.87;;;1.17;;
8161;SDS011;16778;48.154;15.094;2022-07-04T07:46:34;1.23;;;1.13;;
8161;SDS011;16778;48.154;15.094;2022-07-04T07:49:00;1.20;;;0.80;;
8161;SDS011;16778;48.154;15.094;2022-07-04T07:51:26;0.87;;;0.87;;
8161;SDS011;16778;48.154;15.094;2022-07-04T07:53:52;0.90;;;0.80;;
8161;SDS011;16778;48.154;15.094;2022-07-04T07:56:18;1.33;;;1.23;;
8161;SDS011;16778;48.154;15.094;2022-07-04T07:58:43;1.77;;;0.90;;
8161;SDS011;16778;48.154;15.094;2022-07-04T08:01:10;0.97;;;0.97;;
8161;SDS011;16778;48.154;15.094;2022-07-04T08:03:36;1.10;;;1.00;;
8161;SDS011;16778;48.154;15.094;2022-07-04T08:06:20;1.07;;;0.93;;
8161;SDS011;16778;48.154;15.094;2022-07-04T08:08:46;1.20;;;1.10;;
8161;SDS011;16778;48.154;15.094;2022-07-04T08:11:12;1.27;;;0.70;;
8161;SDS011;16778;48.154;15.094;2022-07-04T08:13:39;1.20;;;1.10;;
8161;SDS011;16778;48.154;15.094;2022-07-04T08:16:05;1.10;;;1.00;;
8161;SDS011;16778;48.154;15.094;2022-07-04T08:18:32;0.80;;;0.80;;
8161;SDS011;16778;48.154;15.094;2022-07-04T08:20:59;1.03;;;1.03;;
8161;SDS011;16778;48.154;15.094;2022-07-04T08:23:25;2.30;;;0.93;;
8161;SDS011;16778;48.154;15.094;2022-07-04T08:25:53;1.83;;;1.10;;
8161;SDS011;16778;48.154;15.094;2022-07-04T08:28:19;1.20;;;1.10;;
8161;SDS011;16778;48.154;15.094;2022-07-04T08:30:45;1.73;;;0.93;;
8161;SDS011;16778;48.154;15.094;2022-07-04T08:33:11;0.90;;;0.90;;
8161;SDS011;16778;48.154;15.094;2022-07-04T08:35:37;0.70;;;0.70;;
8161;SDS011;16778;48.154;15.094;2022-07-04T08:38:03;1.00;;;0.70;;
8161;SDS011;16778;48.154;15.094;2022-07-04T08:40:29;1.10;;;1.00;;
8161;SDS011;16778;48.154;15.094;2022-07-04T08:42:56;3.77;;;0.80;;
8161;SDS011;16778;48.154;15.094;2022-07-04T08:45:25;1.00;;;0.90;;
8161;SDS011;16778;48.154;15.094;2022-07-04T08:50:31;1.20;;;1.10;;
8161;SDS011;16778;48.154;15.094;2022-07-04T08:53:02;1.00;;;0.90;;
8161;SDS011;16778;48.154;15.094;2022-07-04T08:55:43;0.70;;;0.67;;
8161;SDS011;16778;48.154;15.094;2022-07-04T08:58:31;0.50;;;0.50;;
8161;SDS011;16778;48.154;15.094;2022-07-04T09:00:59;0.93;;;0.83;;
8161;SDS011;16778;48.154;15.094;2022-07-04T09:03:39;1.07;;;0.97;;
8161;SDS011;16778;48.154;15.094;2022-07-04T09:06:13;0.70;;;0.63;;
8161;SDS011;16778;48.154;15.094;2022-07-04T09:08:39;0.60;;;0.60;;
8161;SDS011;16778;48.154;15.094;2022-07-04T09:11:05;0.73;;;0.70;;
8161;SDS011;16778;48.154;15.094;2022-07-04T09:13:32;0.70;;;0.70;;
8161;SDS011;16778;48.154;15.094;2022-07-04T09:15:59;0.70;;;0.43;;
8161;SDS011;16778;48.154;15.094;2022-07-04T09:18:31;0.80;;;0.80;;
8161;SDS011;16778;48.154;15.094;2022-07-04T09:20:59;0.60;;;0.60;;
8161;SDS011;16778;48.154;15.094;2022-07-04T09:23:41;0.60;;;0.60;;
8161;SDS011;16778;48.154;15.094;2022-07-04T09:26:20;1.00;;;0.90;;
8161;SDS011;16778;48.154;15.094;2022-07-04T09:28:50;0.60;;;0.60;;
8161;SDS011;16778;48.154;15.094;2022-07-04T09:31:23;0.87;;;0.60;;
8161;SDS011;16778;48.154;15.094;2022-07-04T09:33:56;0.33;;;0.33;;
8161;SDS011;16778;48.154;15.094;2022-07-04T09:36:25;0.60;;;0.60;;
8161;SDS011;16778;48.154;15.094;2022-07-04T09:44:29;0.40;;;0.40;;
8161;SDS011;16778;48.154;15.094;2022-07-04T09:47:25;0.40;;;0.40;;
8161;SDS011;16778;48.154;15.094;2022-07-04T09:50:00;1.60;;;0.70;;
8161;SDS011;16778;48.154;15.094;2022-07-04T09:52:51;0.60;;;0.60;;
8161;SDS011;16778;48.154;15.094;2022-07-04T09:55:27;0.93;;;0.80;;
8161;SDS011;16778;48.154;15.094;2022-07-04T09:57:54;0.70;;;0.70;;
8161;SDS011;16778;48.154;15.094;2022-07-04T10:02:53;0.50;;;0.50;;
8161;SDS011;16778;48.154;15.094;2022-07-04T10:05:25;0.57;;;0.57;;
8161;SDS011;16778;48.154;15.094;2022-07-04T10:07:54;0.50;;;0.50;;
8161;SDS011;16778;48.154;15.094;2022-07-04T10:13:08;0.80;;;0.73;;
8161;SDS011;16778;48.154;15.094;2022-07-04T10:15:38;0.40;;;0.40;;
8161;SDS011;16778;48.154;15.094;2022-07-04T10:18:07;0.63;;;0.50;;
8161;SDS011;16778;48.154;15.094;2022-07-04T10:20:34;0.30;;;0.30;;
8161;SDS011;16778;48.154;15.094;2022-07-04T10:23:03;2.10;;;0.33;;
8161;SDS011;16778;48.154;15.094;2022-07-04T10:25:29;0.47;;;0.47;;
8161;SDS011;16778;48.154;15.094;2022-07-04T10:27:55;0.40;;;0.40;;
8161;SDS011;16778;48.154;15.094;2022-07-04T10:32:53;0.30;;;0.30;;
8161;SDS011;16778;48.154;15.094;2022-07-04T10:38:23;0.30;;;0.30;;
8161;SDS011;16778;48.154;15.094;2022-07-04T10:40:54;0.37;;;0.37;;
8161;SDS011;16778;48.154;15.094;2022-07-04T10:44:07;0.33;;;0.33;;
8161;SDS011;16778;48.154;15.094;2022-07-04T10:46:25;0.50;;;0.50;;
8161;SDS011;16778;48.154;15.094;2022-07-04T10:51:32;0.27;;;0.27;;
8161;SDS011;16778;48.154;15.094;2022-07-04T10:56:37;0.40;;;0.40;;
8161;SDS011;16778;48.154;15.094;2022-07-04T11:16:05;0.40;;;0.40;;
8161;SDS011;16778;48.154;15.094;2022-07-04T11:18:10;0.30;;;0.30;;
8161;SDS011;16778;48.154;15.094;2022-07-04T11:20:41;0.60;;;0.60;;
8161;SDS011;16778;48.154;15.094;2022-07-04T11:23:10;0.50;;;0.50;;
8161;SDS011;16778;48.154;15.094;2022-07-04T11:25:37;0.80;;;0.57;;
8161;SDS011;16778;48.154;15.094;2022-07-04T11:30:55;0.47;;;0.47;;
8161;SDS011;16778;48.154;15.094;2022-07-04T11:33:25;0.50;;;0.50;;
8161;SDS011;16778;48.154;15.094;2022-07-04T11:38:50;0.87;;;0.40;;
8161;SDS011;16778;48.154;15.094;2022-07-04T11:41:23;0.60;;;0.60;;
8161;SDS011;16778;48.154;15.094;2022-07-04T11:44:14;0.80;;;0.80;;
8161;SDS011;16778;48.154;15.094;2022-07-04T11:47:18;1.63;;;0.50;;
8161;SDS011;16778;48.154;15.094;2022-07-04T11:49:58;0.83;;;0.70;;
8161;SDS011;16778;48.154;15.094;2022-07-04T11:55:08;0.90;;;0.80;;
8161;SDS011;16778;48.154;15.094;2022-07-04T11:57:37;0.90;;;0.60;;
8161;SDS011;16778;48.154;15.094;2022-07-04T12:00:07;0.77;;;0.77;;
8161;SDS011;16778;48.154;15.094;2022-07-04T12:02:36;0.47;;;0.47;;
8161;SDS011;16778;48.154;15.094;2022-07-04T12:05:03;0.53;;;0.53;;
8161;SDS011;16778;48.154;15.094;2022-07-04T12:07:33;0.60;;;0.60;;
8161;SDS011;16778;48.154;15.094;2022-07-04T12:10:08;0.90;;;0.70;;
8161;SDS011;16778;48.154;15.094;2022-07-04T12:15:44;0.50;;;0.50;;
8161;SDS011;16778;48.154;15.094;2022-07-04T12:21:14;0.67;;;0.67;;
8161;SDS011;16778;48.154;15.094;2022-07-04T12:23:54;0.73;;;0.73;;
8161;SDS011;16778;48.154;15.094;2022-07-04T12:26:20;0.60;;;0.60;;
8161;SDS011;16778;48.154;15.094;2022-07-04T12:28:46;0.60;;;0.60;;
8161;SDS011;16778;48.154;15.094;2022-07-04T12:31:13;0.70;;;0.70;;
8161;SDS011;16778;48.154;15.094;2022-07-04T12:33:39;0.60;;;0.60;;
8161;SDS011;16778;48.154;15.094;2022-07-04T12:36:18;0.70;;;0.70;;
8161;SDS011;16778;48.154;15.094;2022-07-04T12:38:44;0.70;;;0.70;;
8161;SDS011;16778;48.154;15.094;2022-07-04T12:41:11;0.60;;;0.40;;
8161;SDS011;16778;48.154;15.094;2022-07-04T12:48:49;0.43;;;0.43;;
8161;SDS011;16778;48.154;15.094;2022-07-04T12:51:18;0.53;;;0.50;;
8161;SDS011;16778;48.154;15.094;2022-07-04T12:53:48;1.00;;;0.90;;
8161;SDS011;16778;48.154;15.094;2022-07-04T12:58:57;0.60;;;0.50;;
8161;SDS011;16778;48.154;15.094;2022-07-04T13:01:30;0.70;;;0.70;;
8161;SDS011;16778;48.154;15.094;2022-07-04T13:03:57;0.57;;;0.47;;
8161;SDS011;16778;48.154;15.094;2022-07-04T13:06:24;0.60;;;0.60;;
8161;SDS011;16778;48.154;15.094;2022-07-04T13:08:51;1.87;;;0.90;;
8161;SDS011;16778;48.154;15.094;2022-07-04T13:11:18;0.70;;;0.70;;
8161;SDS011;16778;48.154;15.094;2022-07-04T13:14:03;0.60;;;0.60;;
8161;SDS011;16778;48.154;15.094;2022-07-04T13:16:29;0.63;;;0.63;;
8161;SDS011;16778;48.154;15.094;2022-07-04T13:18:55;0.60;;;0.60;;
8161;SDS011;16778;48.154;15.094;2022-07-04T13:21:22;0.83;;;0.70;;
8161;SDS011;16778;48.154;15.094;2022-07-04T13:23:48;0.70;;;0.70;;
8161;SDS011;16778;48.154;15.094;2022-07-04T13:26:15;0.80;;;0.70;;
8161;SDS011;16778;48.154;15.094;2022-07-04T13:28:41;0.60;;;0.60;;
8161;SDS011;16778;48.154;15.094;2022-07-04T13:31:07;0.60;;;0.60;;
8161;SDS011;16778;48.154;15.094;2022-07-04T13:33:33;0.40;;;0.40;;
8161;SDS011;16778;48.154;15.094;2022-07-04T13:35:59;0.47;;;0.47;;
8161;SDS011;16778;48.154;15.094;2022-07-04T13:38:25;1.07;;;0.80;;
8161;SDS011;16778;48.154;15.094;2022-07-04T13:40:51;0.70;;;0.70;;
8161;SDS011;16778;48.154;15.094;2022-07-04T13:43:18;0.70;;;0.70;;
8161;SDS011;16778;48.154;15.094;2022-07-04T13:45:43;0.47;;;0.47;;
8161;SDS011;16778;48.154;15.094;2022-07-04T13:48:12;0.43;;;0.43;;
8161;SDS011;16778;48.154;15.094;2022-07-04T13:50:38;0.93;;;0.53;;
8161;SDS011;16778;48.154;15.094;2022-07-04T13:53:05;0.60;;;0.50;;
8161;SDS011;16778;48.154;15.094;2022-07-04T13:55:32;0.70;;;0.60;;
8161;SDS011;16778;48.154;15.094;2022-07-04T13:58:02;0.50;;;0.50;;
8161;SDS011;16778;48.154;15.094;2022-07-04T14:00:32;0.50;;;0.50;;
8161;SDS011;16778;48.154;15.094;2022-07-04T14:03:00;0.50;;;0.50;;
8161;SDS011;16778;48.154;15.094;2022-07-04T14:05:26;0.53;;;0.53;;
8161;SDS011;16778;48.154;15.094;2022-07-04T14:07:53;0.63;;;0.43;;
8161;SDS011;16778;48.154;15.094;2022-07-04T14:10:19;2.60;;;0.60;;
8161;SDS011;16778;48.154;15.094;2022-07-04T14:12:45;0.60;;;0.60;;
8161;SDS011;16778;48.154;15.094;2022-07-04T14:15:11;0.57;;;0.50;;
8161;SDS011;16778;48.154;15.094;2022-07-04T14:17:38;0.60;;;0.60;;
8161;SDS011;16778;48.154;15.094;2022-07-04T14:20:05;0.60;;;0.60;;
8161;SDS011;16778;48.154;15.094;2022-07-04T14:22:34;1.13;;;0.60;;
8161;SDS011;16778;48.154;15.094;2022-07-04T14:25:01;0.90;;;0.80;;
8161;SDS011;16778;48.154;15.094;2022-07-04T14:27:28;1.20;;;0.70;;
8161;SDS011;16778;48.154;15.094;2022-07-04T14:29:54;0.63;;;0.50;;
8161;SDS011;16778;48.154;15.094;2022-07-04T14:32:20;0.37;;;0.37;;
8161;SDS011;16778;48.154;15.094;2022-07-04T14:34:45;0.63;;;0.60;;
8161;SDS011;16778;48.154;15.094;2022-07-04T14:37:11;0.50;;;0.50;;
8161;SDS011;16778;48.154;15.094;2022-07-04T14:39:37;0.93;;;0.60;;
8161;SDS011;16778;48.154;15.094;2022-07-04T14:42:03;0.70;;;0.60;;
8161;SDS011;16778;48.154;15.094;2022-07-04T14:44:30;0.97;;;0.77;;
8161;SDS011;16778;48.154;15.094;2022-07-04T14:47:00;1.30;;;1.00;;
8161;SDS011;16778;48.154;15.094;2022-07-04T14:49:27;0.60;;;0.60;;
8161;SDS011;16778;48.154;15.094;2022-07-04T14:51:53;0.63;;;0.63;;
8161;SDS011;16778;48.154;15.094;2022-07-04T14:54:19;0.60;;;0.57;;
8161;SDS011;16778;48.154;15.094;2022-07-04T14:56:45;0.87;;;0.80;;
8161;SDS011;16778;48.154;15.094;2022-07-04T14:59:10;1.10;;;0.83;;
8161;SDS011;16778;48.154;15.094;2022-07-04T15:01:36;1.80;;;0.90;;
8161;SDS011;16778;48.154;15.094;2022-07-04T15:04:02;0.63;;;0.63;;
8161;SDS011;16778;48.154;15.094;2022-07-04T15:06:28;0.83;;;0.70;;
8161;SDS011;16778;48.154;15.094;2022-07-04T15:08:54;1.13;;;1.03;;
8161;SDS011;16778;48.154;15.094;2022-07-04T15:11:20;0.53;;;0.53;;
8161;SDS011;16778;48.154;15.094;2022-07-04T15:13:46;1.60;;;0.73;;
8161;SDS011;16778;48.154;15.094;2022-07-04T15:16:12;0.87;;;0.77;;
8161;SDS011;16778;48.154;15.094;2022-07-04T15:18:39;0.90;;;0.77;;
8161;SDS011;16778;48.154;15.094;2022-07-04T15:21:05;0.70;;;0.70;;
8161;SDS011;16778;48.154;15.094;2022-07-04T15:23:49;0.70;;;0.70;;
8161;SDS011;16778;48.154;15.094;2022-07-04T15:26:34;0.50;;;0.50;;
8161;SDS011;16778;48.154;15.094;2022-07-04T15:29:00;0.70;;;0.70;;
8161;SDS011;16778;48.154;15.094;2022-07-04T15:31:26;1.20;;;0.77;;
8161;SDS011;16778;48.154;15.094;2022-07-04T15:33:52;0.77;;;0.67;;
8161;SDS011;16778;48.154;15.094;2022-07-04T15:36:18;0.60;;;0.60;;
8161;SDS011;16778;48.154;15.094;2022-07-04T15:38:44;1.27;;;0.83;;
8161;SDS011;16778;48.154;15.094;2022-07-04T15:41:10;0.60;;;0.60;;
8161;SDS011;16778;48.154;15.094;2022-07-04T15:43:40;0.70;;;0.70;;
8161;SDS011;16778;48.154;15.094;2022-07-04T15:46:07;1.17;;;1.00;;
8161;SDS011;16778;48.154;15.094;2022-07-04T15:48:34;1.07;;;0.70;;
8161;SDS011;16778;48.154;15.094;2022-07-04T15:51:00;0.67;;;0.67;;
8161;SDS011;16778;48.154;15.094;2022-07-04T15:53:26;0.60;;;0.60;;
8161;SDS011;16778;48.154;15.094;2022-07-04T15:55:52;1.23;;;0.83;;